sensor_id;sensor_type;location;lat;lon;timestamp;P1;durP1;ratioP1;P2;durP2;ratioP2
73814;SDS011;62145;55.648;37.602;2023-07-20T00:00:29;4.75;;;1.30;;
73814;SDS011;62145;55.648;37.602;2023-07-20T00:03:09;5.03;;;1.30;;
73814;SDS011;62145;55.648;37.602;2023-07-20T00:05:45;6.45;;;1.40;;
73814;SDS011;62145;55.648;37.602;2023-07-20T00:08:11;5.72;;;1.40;;
73814;SDS011;62145;55.648;37.602;2023-07-20T00:10:37;3.58;;;1.30;;
73814;SDS011;62145;55.648;37.602;2023-07-20T00:13:04;5.27;;;1.30;;
73814;SDS011;62145;55.648;37.602;2023-07-20T00:15:33;4.75;;;1.30;;
73814;SDS011;62145;55.648;37.602;2023-07-20T00:18:01;5.10;;;1.40;;
73814;SDS011;62145;55.648;37.602;2023-07-20T00:20:27;4.50;;;1.20;;
73814;SDS011;62145;55.648;37.602;2023-07-20T00:22:53;3.80;;;1.17;;
73814;SDS011;62145;55.648;37.602;2023-07-20T00:25:20;5.32;;;1.60;;
73814;SDS011;62145;55.648;37.602;2023-07-20T00:27:46;5.30;;;1.30;;
73814;SDS011;62145;55.648;37.602;2023-07-20T00:30:12;4.50;;;1.40;;
73814;SDS011;62145;55.648;37.602;2023-07-20T00:32:38;4.93;;;1.20;;
73814;SDS011;62145;55.648;37.602;2023-07-20T00:35:04;5.28;;;1.30;;
73814;SDS011;62145;55.648;37.602;2023-07-20T00:37:30;4.93;;;1.20;;
73814;SDS011;62145;55.648;37.602;2023-07-20T00:39:56;5.40;;;1.30;;
73814;SDS011;62145;55.648;37.602;2023-07-20T00:42:25;3.42;;;1.00;;
73814;SDS011;62145;55.648;37.602;2023-07-20T00:44:51;5.50;;;1.38;;
73814;SDS011;62145;55.648;37.602;2023-07-20T00:47:18;3.85;;;1.00;;
73814;SDS011;62145;55.648;37.602;2023-07-20T00:49:44;4.70;;;1.20;;
73814;SDS011;62145;55.648;37.602;2023-07-20T00:52:10;3.80;;;1.17;;
73814;SDS011;62145;55.648;37.602;2023-07-20T00:54:36;5.13;;;1.08;;
73814;SDS011;62145;55.648;37.602;2023-07-20T00:57:04;4.03;;;1.13;;
73814;SDS011;62145;55.648;37.602;2023-07-20T00:59:31;5.10;;;1.17;;
73814;SDS011;62145;55.648;37.602;2023-07-20T01:01:57;4.03;;;1.13;;
73814;SDS011;62145;55.648;37.602;2023-07-20T01:04:22;5.80;;;1.27;;
73814;SDS011;62145;55.648;37.602;2023-07-20T01:06:52;4.28;;;1.13;;
73814;SDS011;62145;55.648;37.602;2023-07-20T01:09:28;4.18;;;1.25;;
73814;SDS011;62145;55.648;37.602;2023-07-20T01:12:06;6.00;;;1.30;;
73814;SDS011;62145;55.648;37.602;2023-07-20T01:14:34;7.40;;;1.38;;
73814;SDS011;62145;55.648;37.602;2023-07-20T01:17:00;4.95;;;1.33;;
73814;SDS011;62145;55.648;37.602;2023-07-20T01:19:26;6.90;;;1.33;;
73814;SDS011;62145;55.648;37.602;2023-07-20T01:24:45;4.22;;;1.60;;
73814;SDS011;62145;55.648;37.602;2023-07-20T01:27:38;3.15;;;1.20;;
73814;SDS011;62145;55.648;37.602;2023-07-20T01:33:20;4.67;;;1.20;;
73814;SDS011;62145;55.648;37.602;2023-07-20T01:35:47;4.00;;;1.30;;
73814;SDS011;62145;55.648;37.602;2023-07-20T01:38:16;4.18;;;1.27;;
73814;SDS011;62145;55.648;37.602;2023-07-20T01:40:43;3.55;;;1.13;;
73814;SDS011;62145;55.648;37.602;2023-07-20T01:43:09;4.97;;;1.20;;
73814;SDS011;62145;55.648;37.602;2023-07-20T01:45:35;3.40;;;1.15;;
73814;SDS011;62145;55.648;37.602;2023-07-20T01:48:01;5.03;;;1.30;;
73814;SDS011;62145;55.648;37.602;2023-07-20T01:50:26;3.57;;;1.10;;
73814;SDS011;62145;55.648;37.602;2023-07-20T01:52:52;4.67;;;1.30;;
73814;SDS011;62145;55.648;37.602;2023-07-20T01:55:18;5.43;;;1.30;;
73814;SDS011;62145;55.648;37.602;2023-07-20T01:57:45;4.50;;;1.50;;
73814;SDS011;62145;55.648;37.602;2023-07-20T02:00:11;5.77;;;1.30;;
73814;SDS011;62145;55.648;37.602;2023-07-20T02:02:41;3.78;;;1.10;;
73814;SDS011;62145;55.648;37.602;2023-07-20T02:05:06;4.18;;;1.25;;
73814;SDS011;62145;55.648;37.602;2023-07-20T02:07:33;3.67;;;1.02;;
73814;SDS011;62145;55.648;37.602;2023-07-20T02:09:58;3.20;;;1.10;;
73814;SDS011;62145;55.648;37.602;2023-07-20T02:12:24;4.90;;;1.20;;
73814;SDS011;62145;55.648;37.602;2023-07-20T02:14:50;5.17;;;1.30;;
73814;SDS011;62145;55.648;37.602;2023-07-20T02:17:16;4.20;;;1.50;;
73814;SDS011;62145;55.648;37.602;2023-07-20T02:19:42;4.82;;;1.20;;
73814;SDS011;62145;55.648;37.602;2023-07-20T02:22:08;4.65;;;1.20;;
73814;SDS011;62145;55.648;37.602;2023-07-20T02:24:34;3.53;;;1.10;;
73814;SDS011;62145;55.648;37.602;2023-07-20T02:27:00;4.43;;;1.20;;
73814;SDS011;62145;55.648;37.602;2023-07-20T02:29:25;4.37;;;1.00;;
73814;SDS011;62145;55.648;37.602;2023-07-20T02:31:51;4.13;;;1.17;;
73814;SDS011;62145;55.648;37.602;2023-07-20T02:34:17;4.03;;;1.20;;
73814;SDS011;62145;55.648;37.602;2023-07-20T02:36:43;4.57;;;1.00;;
73814;SDS011;62145;55.648;37.602;2023-07-20T02:39:08;4.63;;;1.30;;
73814;SDS011;62145;55.648;37.602;2023-07-20T02:41:53;5.67;;;1.30;;
73814;SDS011;62145;55.648;37.602;2023-07-20T02:44:19;8.15;;;1.30;;
73814;SDS011;62145;55.648;37.602;2023-07-20T02:46:45;3.78;;;1.30;;
73814;SDS011;62145;55.648;37.602;2023-07-20T02:49:17;4.53;;;1.20;;
73814;SDS011;62145;55.648;37.602;2023-07-20T02:51:45;3.72;;;1.20;;
73814;SDS011;62145;55.648;37.602;2023-07-20T02:54:11;3.27;;;1.10;;
73814;SDS011;62145;55.648;37.602;2023-07-20T02:56:46;4.63;;;1.17;;
73814;SDS011;62145;55.648;37.602;2023-07-20T02:59:15;4.97;;;1.40;;
73814;SDS011;62145;55.648;37.602;2023-07-20T03:01:44;4.35;;;1.30;;
73814;SDS011;62145;55.648;37.602;2023-07-20T03:04:12;3.33;;;1.20;;
73814;SDS011;62145;55.648;37.602;2023-07-20T03:06:39;3.17;;;0.90;;
73814;SDS011;62145;55.648;37.602;2023-07-20T03:09:13;4.80;;;1.15;;
73814;SDS011;62145;55.648;37.602;2023-07-20T03:11:40;3.63;;;1.10;;
73814;SDS011;62145;55.648;37.602;2023-07-20T03:14:11;4.15;;;1.10;;
73814;SDS011;62145;55.648;37.602;2023-07-20T03:16:39;3.23;;;1.00;;
73814;SDS011;62145;55.648;37.602;2023-07-20T03:19:12;2.90;;;1.15;;
73814;SDS011;62145;55.648;37.602;2023-07-20T03:21:41;5.13;;;1.20;;
73814;SDS011;62145;55.648;37.602;2023-07-20T03:24:12;3.80;;;1.20;;
73814;SDS011;62145;55.648;37.602;2023-07-20T03:26:39;3.40;;;1.30;;
73814;SDS011;62145;55.648;37.602;2023-07-20T03:29:07;4.33;;;1.10;;
73814;SDS011;62145;55.648;37.602;2023-07-20T03:31:36;3.92;;;1.10;;
73814;SDS011;62145;55.648;37.602;2023-07-20T03:34:03;5.32;;;1.10;;
73814;SDS011;62145;55.648;37.602;2023-07-20T03:36:30;4.28;;;1.27;;
73814;SDS011;62145;55.648;37.602;2023-07-20T03:38:58;5.57;;;1.05;;
73814;SDS011;62145;55.648;37.602;2023-07-20T03:41:24;6.33;;;1.37;;
73814;SDS011;62145;55.648;37.602;2023-07-20T03:43:53;3.92;;;1.15;;
73814;SDS011;62145;55.648;37.602;2023-07-20T03:46:19;3.45;;;1.30;;
73814;SDS011;62145;55.648;37.602;2023-07-20T03:48:45;3.85;;;1.20;;
73814;SDS011;62145;55.648;37.602;2023-07-20T03:51:11;3.70;;;1.07;;
73814;SDS011;62145;55.648;37.602;2023-07-20T03:53:37;3.72;;;1.30;;
73814;SDS011;62145;55.648;37.602;2023-07-20T03:56:04;3.80;;;1.30;;
73814;SDS011;62145;55.648;37.602;2023-07-20T03:58:29;6.70;;;1.30;;
73814;SDS011;62145;55.648;37.602;2023-07-20T04:00:57;4.87;;;1.37;;
73814;SDS011;62145;55.648;37.602;2023-07-20T04:03:23;4.72;;;1.20;;
73814;SDS011;62145;55.648;37.602;2023-07-20T04:05:53;4.63;;;1.30;;
73814;SDS011;62145;55.648;37.602;2023-07-20T04:08:24;4.57;;;1.27;;
73814;SDS011;62145;55.648;37.602;2023-07-20T04:10:50;3.90;;;1.23;;
73814;SDS011;62145;55.648;37.602;2023-07-20T04:13:17;4.70;;;1.30;;
73814;SDS011;62145;55.648;37.602;2023-07-20T04:15:43;5.43;;;1.27;;
73814;SDS011;62145;55.648;37.602;2023-07-20T04:18:09;3.33;;;1.30;;
73814;SDS011;62145;55.648;37.602;2023-07-20T04:20:34;4.53;;;1.10;;
73814;SDS011;62145;55.648;37.602;2023-07-20T04:23:00;3.13;;;0.97;;
73814;SDS011;62145;55.648;37.602;2023-07-20T04:25:26;4.90;;;1.20;;
73814;SDS011;62145;55.648;37.602;2023-07-20T04:27:52;5.05;;;1.15;;
73814;SDS011;62145;55.648;37.602;2023-07-20T04:30:18;4.20;;;1.00;;
73814;SDS011;62145;55.648;37.602;2023-07-20T04:32:48;4.68;;;1.10;;
73814;SDS011;62145;55.648;37.602;2023-07-20T04:35:45;4.75;;;1.20;;
73814;SDS011;62145;55.648;37.602;2023-07-20T04:38:17;3.42;;;1.00;;
73814;SDS011;62145;55.648;37.602;2023-07-20T04:40:48;3.63;;;1.10;;
73814;SDS011;62145;55.648;37.602;2023-07-20T04:43:15;3.57;;;1.10;;
73814;SDS011;62145;55.648;37.602;2023-07-20T04:45:42;4.10;;;1.20;;
73814;SDS011;62145;55.648;37.602;2023-07-20T04:48:10;4.55;;;1.23;;
73814;SDS011;62145;55.648;37.602;2023-07-20T04:50:38;3.65;;;1.15;;
73814;SDS011;62145;55.648;37.602;2023-07-20T04:53:06;4.22;;;1.30;;
73814;SDS011;62145;55.648;37.602;2023-07-20T04:55:36;3.07;;;1.10;;
73814;SDS011;62145;55.648;37.602;2023-07-20T04:58:02;4.28;;;1.30;;
73814;SDS011;62145;55.648;37.602;2023-07-20T05:00:30;4.38;;;1.40;;
73814;SDS011;62145;55.648;37.602;2023-07-20T05:02:57;4.65;;;1.15;;
73814;SDS011;62145;55.648;37.602;2023-07-20T05:05:23;3.53;;;1.17;;
73814;SDS011;62145;55.648;37.602;2023-07-20T05:07:49;3.80;;;1.40;;
73814;SDS011;62145;55.648;37.602;2023-07-20T05:10:15;4.47;;;1.20;;
73814;SDS011;62145;55.648;37.602;2023-07-20T05:12:41;7.53;;;1.40;;
73814;SDS011;62145;55.648;37.602;2023-07-20T05:15:06;5.53;;;1.27;;
73814;SDS011;62145;55.648;37.602;2023-07-20T05:17:34;3.85;;;1.30;;
73814;SDS011;62145;55.648;37.602;2023-07-20T05:20:00;4.38;;;1.33;;
73814;SDS011;62145;55.648;37.602;2023-07-20T05:22:27;4.18;;;1.40;;
73814;SDS011;62145;55.648;37.602;2023-07-20T05:24:53;4.07;;;1.40;;
73814;SDS011;62145;55.648;37.602;2023-07-20T05:27:18;3.72;;;1.48;;
73814;SDS011;62145;55.648;37.602;2023-07-20T05:29:45;4.75;;;1.40;;
73814;SDS011;62145;55.648;37.602;2023-07-20T05:32:11;4.30;;;1.20;;
73814;SDS011;62145;55.648;37.602;2023-07-20T05:34:37;4.72;;;1.52;;
73814;SDS011;62145;55.648;37.602;2023-07-20T05:37:03;3.83;;;1.38;;
73814;SDS011;62145;55.648;37.602;2023-07-20T05:39:29;3.63;;;1.70;;
73814;SDS011;62145;55.648;37.602;2023-07-20T05:41:55;5.27;;;1.40;;
73814;SDS011;62145;55.648;37.602;2023-07-20T05:44:25;3.55;;;1.75;;
73814;SDS011;62145;55.648;37.602;2023-07-20T05:46:51;4.50;;;1.50;;
73814;SDS011;62145;55.648;37.602;2023-07-20T05:49:17;5.43;;;1.60;;
73814;SDS011;62145;55.648;37.602;2023-07-20T05:51:43;3.83;;;1.38;;
73814;SDS011;62145;55.648;37.602;2023-07-20T05:54:09;4.03;;;1.60;;
73814;SDS011;62145;55.648;37.602;2023-07-20T05:56:34;3.93;;;1.73;;
73814;SDS011;62145;55.648;37.602;2023-07-20T05:59:00;4.43;;;1.70;;
73814;SDS011;62145;55.648;37.602;2023-07-20T06:01:29;5.13;;;1.70;;
73814;SDS011;62145;55.648;37.602;2023-07-20T06:03:58;3.60;;;1.30;;
73814;SDS011;62145;55.648;37.602;2023-07-20T06:06:29;3.90;;;1.50;;
73814;SDS011;62145;55.648;37.602;2023-07-20T06:08:54;4.13;;;1.52;;
73814;SDS011;62145;55.648;37.602;2023-07-20T06:11:20;4.15;;;1.75;;
73814;SDS011;62145;55.648;37.602;2023-07-20T06:13:46;5.20;;;1.80;;
73814;SDS011;62145;55.648;37.602;2023-07-20T06:16:12;3.33;;;1.48;;
73814;SDS011;62145;55.648;37.602;2023-07-20T06:18:38;4.28;;;1.40;;
73814;SDS011;62145;55.648;37.602;2023-07-20T06:21:04;4.67;;;1.50;;
73814;SDS011;62145;55.648;37.602;2023-07-20T06:23:30;3.47;;;1.40;;
73814;SDS011;62145;55.648;37.602;2023-07-20T06:25:56;5.20;;;1.30;;
73814;SDS011;62145;55.648;37.602;2023-07-20T06:28:22;4.47;;;1.47;;
73814;SDS011;62145;55.648;37.602;2023-07-20T06:30:47;3.60;;;1.45;;
73814;SDS011;62145;55.648;37.602;2023-07-20T06:33:13;4.17;;;1.47;;
73814;SDS011;62145;55.648;37.602;2023-07-20T06:35:41;3.47;;;1.40;;
73814;SDS011;62145;55.648;37.602;2023-07-20T06:38:08;5.18;;;1.63;;
73814;SDS011;62145;55.648;37.602;2023-07-20T06:40:34;5.45;;;2.45;;
73814;SDS011;62145;55.648;37.602;2023-07-20T06:42:59;3.17;;;1.40;;
73814;SDS011;62145;55.648;37.602;2023-07-20T06:45:27;4.20;;;1.30;;
73814;SDS011;62145;55.648;37.602;2023-07-20T06:47:56;4.40;;;1.30;;
73814;SDS011;62145;55.648;37.602;2023-07-20T06:50:24;4.45;;;1.40;;
73814;SDS011;62145;55.648;37.602;2023-07-20T06:52:58;3.88;;;1.23;;
73814;SDS011;62145;55.648;37.602;2023-07-20T06:55:34;3.40;;;1.20;;
73814;SDS011;62145;55.648;37.602;2023-07-20T06:58:07;3.42;;;1.33;;
73814;SDS011;62145;55.648;37.602;2023-07-20T07:00:40;3.30;;;0.85;;
73814;SDS011;62145;55.648;37.602;2023-07-20T07:03:11;3.33;;;1.20;;
73814;SDS011;62145;55.648;37.602;2023-07-20T07:05:42;2.72;;;1.17;;
73814;SDS011;62145;55.648;37.602;2023-07-20T07:08:14;2.80;;;1.33;;
73814;SDS011;62145;55.648;37.602;2023-07-20T07:10:42;5.32;;;1.60;;
73814;SDS011;62145;55.648;37.602;2023-07-20T07:13:19;3.65;;;1.50;;
73814;SDS011;62145;55.648;37.602;2023-07-20T07:15:51;4.28;;;1.42;;
73814;SDS011;62145;55.648;37.602;2023-07-20T07:18:26;4.25;;;1.25;;
73814;SDS011;62145;55.648;37.602;2023-07-20T07:20:55;2.90;;;1.00;;
73814;SDS011;62145;55.648;37.602;2023-07-20T07:23:24;3.67;;;1.00;;
73814;SDS011;62145;55.648;37.602;2023-07-20T07:25:54;5.07;;;1.60;;
73814;SDS011;62145;55.648;37.602;2023-07-20T07:28:21;4.30;;;1.50;;
73814;SDS011;62145;55.648;37.602;2023-07-20T07:30:51;3.50;;;1.50;;
73814;SDS011;62145;55.648;37.602;2023-07-20T07:33:19;5.40;;;1.40;;
73814;SDS011;62145;55.648;37.602;2023-07-20T07:35:54;4.22;;;1.40;;
73814;SDS011;62145;55.648;37.602;2023-07-20T07:38:21;4.43;;;1.08;;
73814;SDS011;62145;55.648;37.602;2023-07-20T07:40:46;3.03;;;1.30;;
73814;SDS011;62145;55.648;37.602;2023-07-20T07:43:12;3.28;;;1.23;;
73814;SDS011;62145;55.648;37.602;2023-07-20T07:45:42;7.30;;;1.45;;
73814;SDS011;62145;55.648;37.602;2023-07-20T07:48:14;4.15;;;1.40;;
73814;SDS011;62145;55.648;37.602;2023-07-20T07:50:45;3.73;;;1.40;;
73814;SDS011;62145;55.648;37.602;2023-07-20T07:53:11;4.28;;;1.50;;
73814;SDS011;62145;55.648;37.602;2023-07-20T07:55:38;5.55;;;1.40;;
73814;SDS011;62145;55.648;37.602;2023-07-20T07:58:04;3.15;;;1.10;;
73814;SDS011;62145;55.648;37.602;2023-07-20T08:00:31;3.75;;;1.08;;
73814;SDS011;62145;55.648;37.602;2023-07-20T08:02:56;3.80;;;0.90;;
73814;SDS011;62145;55.648;37.602;2023-07-20T08:05:22;4.35;;;1.00;;
73814;SDS011;62145;55.648;37.602;2023-07-20T08:07:48;4.07;;;1.20;;
73814;SDS011;62145;55.648;37.602;2023-07-20T08:10:14;4.88;;;1.15;;
73814;SDS011;62145;55.648;37.602;2023-07-20T08:12:40;6.07;;;1.40;;
73814;SDS011;62145;55.648;37.602;2023-07-20T08:15:06;4.57;;;1.20;;
73814;SDS011;62145;55.648;37.602;2023-07-20T08:17:32;3.92;;;1.50;;
73814;SDS011;62145;55.648;37.602;2023-07-20T08:19:58;3.50;;;1.40;;
73814;SDS011;62145;55.648;37.602;2023-07-20T08:22:24;4.67;;;1.17;;
73814;SDS011;62145;55.648;37.602;2023-07-20T08:24:49;8.00;;;1.40;;
73814;SDS011;62145;55.648;37.602;2023-07-20T08:27:15;4.33;;;1.30;;
73814;SDS011;62145;55.648;37.602;2023-07-20T08:29:41;4.33;;;1.30;;
73814;SDS011;62145;55.648;37.602;2023-07-20T08:32:07;6.03;;;1.15;;
73814;SDS011;62145;55.648;37.602;2023-07-20T08:34:33;5.20;;;1.33;;
73814;SDS011;62145;55.648;37.602;2023-07-20T08:36:59;3.40;;;1.30;;
73814;SDS011;62145;55.648;37.602;2023-07-20T08:39:25;3.40;;;1.20;;
73814;SDS011;62145;55.648;37.602;2023-07-20T08:41:51;4.05;;;1.45;;
73814;SDS011;62145;55.648;37.602;2023-07-20T08:44:17;4.67;;;1.33;;
73814;SDS011;62145;55.648;37.602;2023-07-20T08:46:43;4.22;;;1.33;;
73814;SDS011;62145;55.648;37.602;2023-07-20T08:49:12;4.80;;;1.50;;
73814;SDS011;62145;55.648;37.602;2023-07-20T08:51:40;5.13;;;1.55;;
73814;SDS011;62145;55.648;37.602;2023-07-20T08:54:09;5.85;;;1.77;;
73814;SDS011;62145;55.648;37.602;2023-07-20T08:56:39;3.87;;;1.40;;
73814;SDS011;62145;55.648;37.602;2023-07-20T08:59:10;4.25;;;1.20;;
73814;SDS011;62145;55.648;37.602;2023-07-20T09:01:39;3.75;;;1.02;;
73814;SDS011;62145;55.648;37.602;2023-07-20T09:04:07;6.53;;;1.35;;
73814;SDS011;62145;55.648;37.602;2023-07-20T09:06:36;8.35;;;1.35;;
73814;SDS011;62145;55.648;37.602;2023-07-20T09:09:06;4.53;;;1.23;;
73814;SDS011;62145;55.648;37.602;2023-07-20T09:11:35;6.10;;;1.30;;
73814;SDS011;62145;55.648;37.602;2023-07-20T09:14:04;5.70;;;1.30;;
73814;SDS011;62145;55.648;37.602;2023-07-20T09:16:54;4.88;;;1.20;;
73814;SDS011;62145;55.648;37.602;2023-07-20T09:19:25;5.10;;;1.40;;
73814;SDS011;62145;55.648;37.602;2023-07-20T09:21:56;4.17;;;1.20;;
73814;SDS011;62145;55.648;37.602;2023-07-20T09:24:28;6.55;;;1.30;;
73814;SDS011;62145;55.648;37.602;2023-07-20T09:27:01;4.50;;;1.20;;
73814;SDS011;62145;55.648;37.602;2023-07-20T09:29:47;5.70;;;1.30;;
73814;SDS011;62145;55.648;37.602;2023-07-20T09:32:18;4.00;;;1.15;;
73814;SDS011;62145;55.648;37.602;2023-07-20T09:34:57;4.93;;;1.30;;
73814;SDS011;62145;55.648;37.602;2023-07-20T09:37:29;6.05;;;1.42;;
73814;SDS011;62145;55.648;37.602;2023-07-20T09:40:01;4.20;;;1.25;;
73814;SDS011;62145;55.648;37.602;2023-07-20T09:42:32;4.93;;;1.30;;
73814;SDS011;62145;55.648;37.602;2023-07-20T09:44:59;4.55;;;1.40;;
73814;SDS011;62145;55.648;37.602;2023-07-20T09:47:29;5.13;;;1.47;;
73814;SDS011;62145;55.648;37.602;2023-07-20T09:49:58;3.22;;;1.13;;
73814;SDS011;62145;55.648;37.602;2023-07-20T09:52:33;4.18;;;1.13;;
73814;SDS011;62145;55.648;37.602;2023-07-20T09:55:10;4.70;;;1.60;;
73814;SDS011;62145;55.648;37.602;2023-07-20T09:57:46;4.07;;;1.30;;
73814;SDS011;62145;55.648;37.602;2023-07-20T10:00:18;5.10;;;1.40;;
73814;SDS011;62145;55.648;37.602;2023-07-20T10:02:50;4.15;;;1.38;;
73814;SDS011;62145;55.648;37.602;2023-07-20T10:05:18;4.78;;;1.33;;
73814;SDS011;62145;55.648;37.602;2023-07-20T10:07:50;4.78;;;1.35;;
73814;SDS011;62145;55.648;37.602;2023-07-20T10:10:21;4.88;;;1.33;;
73814;SDS011;62145;55.648;37.602;2023-07-20T10:12:49;5.43;;;1.80;;
73814;SDS011;62145;55.648;37.602;2023-07-20T10:15:37;4.38;;;1.40;;
73814;SDS011;62145;55.648;37.602;2023-07-20T10:18:41;4.38;;;1.65;;
73814;SDS011;62145;55.648;37.602;2023-07-20T10:21:16;3.95;;;1.50;;
73814;SDS011;62145;55.648;37.602;2023-07-20T10:23:51;4.35;;;1.52;;
73814;SDS011;62145;55.648;37.602;2023-07-20T10:26:26;4.40;;;1.60;;
73814;SDS011;62145;55.648;37.602;2023-07-20T10:28:58;6.93;;;1.63;;
73814;SDS011;62145;55.648;37.602;2023-07-20T10:31:28;4.57;;;1.65;;
73814;SDS011;62145;55.648;37.602;2023-07-20T10:33:57;4.68;;;1.42;;
73814;SDS011;62145;55.648;37.602;2023-07-20T10:36:26;5.78;;;1.60;;
73814;SDS011;62145;55.648;37.602;2023-07-20T10:38:56;4.17;;;1.47;;
73814;SDS011;62145;55.648;37.602;2023-07-20T10:41:34;4.38;;;1.70;;
73814;SDS011;62145;55.648;37.602;2023-07-20T10:44:11;5.80;;;1.50;;
73814;SDS011;62145;55.648;37.602;2023-07-20T10:46:44;4.15;;;1.40;;
73814;SDS011;62145;55.648;37.602;2023-07-20T10:49:12;4.38;;;1.50;;
73814;SDS011;62145;55.648;37.602;2023-07-20T10:51:57;4.77;;;1.57;;
73814;SDS011;62145;55.648;37.602;2023-07-20T10:54:47;5.03;;;1.80;;
73814;SDS011;62145;55.648;37.602;2023-07-20T10:57:29;5.13;;;1.60;;
73814;SDS011;62145;55.648;37.602;2023-07-20T11:00:10;4.47;;;1.70;;
73814;SDS011;62145;55.648;37.602;2023-07-20T11:02:44;5.25;;;1.77;;
73814;SDS011;62145;55.648;37.602;2023-07-20T11:08:11;5.55;;;1.80;;
73814;SDS011;62145;55.648;37.602;2023-07-20T11:10:40;5.28;;;1.85;;
73814;SDS011;62145;55.648;37.602;2023-07-20T11:13:37;5.75;;;1.90;;
73814;SDS011;62145;55.648;37.602;2023-07-20T11:19:22;4.40;;;1.70;;
73814;SDS011;62145;55.648;37.602;2023-07-20T11:22:10;5.45;;;1.40;;
73814;SDS011;62145;55.648;37.602;2023-07-20T11:24:41;7.97;;;1.88;;
73814;SDS011;62145;55.648;37.602;2023-07-20T11:27:14;6.65;;;1.90;;
73814;SDS011;62145;55.648;37.602;2023-07-20T11:29:47;4.93;;;2.10;;
73814;SDS011;62145;55.648;37.602;2023-07-20T11:32:22;8.03;;;1.70;;
73814;SDS011;62145;55.648;37.602;2023-07-20T11:34:49;6.05;;;1.88;;
73814;SDS011;62145;55.648;37.602;2023-07-20T11:37:15;5.22;;;1.60;;
73814;SDS011;62145;55.648;37.602;2023-07-20T11:39:42;6.05;;;2.05;;
73814;SDS011;62145;55.648;37.602;2023-07-20T11:42:08;5.43;;;1.97;;
73814;SDS011;62145;55.648;37.602;2023-07-20T11:44:34;4.90;;;1.80;;
73814;SDS011;62145;55.648;37.602;2023-07-20T11:49:36;4.75;;;1.90;;
73814;SDS011;62145;55.648;37.602;2023-07-20T11:52:15;4.83;;;1.70;;
73814;SDS011;62145;55.648;37.602;2023-07-20T11:54:42;6.57;;;1.73;;
73814;SDS011;62145;55.648;37.602;2023-07-20T11:57:18;5.65;;;1.67;;
73814;SDS011;62145;55.648;37.602;2023-07-20T12:00:03;7.32;;;1.65;;
73814;SDS011;62145;55.648;37.602;2023-07-20T12:02:37;5.30;;;1.90;;
73814;SDS011;62145;55.648;37.602;2023-07-20T12:05:03;5.27;;;2.00;;
73814;SDS011;62145;55.648;37.602;2023-07-20T12:07:32;5.55;;;2.00;;
73814;SDS011;62145;55.648;37.602;2023-07-20T12:12:42;5.60;;;1.98;;
73814;SDS011;62145;55.648;37.602;2023-07-20T12:15:13;4.63;;;2.00;;
73814;SDS011;62145;55.648;37.602;2023-07-20T12:17:46;5.97;;;1.90;;
73814;SDS011;62145;55.648;37.602;2023-07-20T12:20:12;5.55;;;1.80;;
73814;SDS011;62145;55.648;37.602;2023-07-20T12:22:39;5.03;;;2.03;;
73814;SDS011;62145;55.648;37.602;2023-07-20T12:25:06;9.18;;;2.30;;
73814;SDS011;62145;55.648;37.602;2023-07-20T12:27:35;4.68;;;1.98;;
73814;SDS011;62145;55.648;37.602;2023-07-20T12:30:04;5.07;;;1.73;;
73814;SDS011;62145;55.648;37.602;2023-07-20T12:32:31;6.85;;;2.00;;
73814;SDS011;62145;55.648;37.602;2023-07-20T12:34:57;5.35;;;1.77;;
73814;SDS011;62145;55.648;37.602;2023-07-20T12:37:25;4.35;;;1.40;;
73814;SDS011;62145;55.648;37.602;2023-07-20T12:39:52;4.40;;;1.42;;
73814;SDS011;62145;55.648;37.602;2023-07-20T12:42:18;4.63;;;1.70;;
73814;SDS011;62145;55.648;37.602;2023-07-20T12:44:44;6.10;;;1.60;;
73814;SDS011;62145;55.648;37.602;2023-07-20T12:47:10;4.13;;;1.50;;
73814;SDS011;62145;55.648;37.602;2023-07-20T12:49:36;5.37;;;1.40;;
73814;SDS011;62145;55.648;37.602;2023-07-20T12:52:01;5.82;;;1.40;;
73814;SDS011;62145;55.648;37.602;2023-07-20T12:54:27;4.07;;;1.30;;
73814;SDS011;62145;55.648;37.602;2023-07-20T12:56:53;3.67;;;1.30;;
73814;SDS011;62145;55.648;37.602;2023-07-20T12:59:19;4.03;;;1.55;;
73814;SDS011;62145;55.648;37.602;2023-07-20T13:01:45;3.78;;;1.50;;
73814;SDS011;62145;55.648;37.602;2023-07-20T13:04:11;4.23;;;1.20;;
73814;SDS011;62145;55.648;37.602;2023-07-20T13:06:37;5.13;;;1.20;;
73814;SDS011;62145;55.648;37.602;2023-07-20T13:09:02;4.35;;;1.30;;
73814;SDS011;62145;55.648;37.602;2023-07-20T13:11:28;4.70;;;1.37;;
73814;SDS011;62145;55.648;37.602;2023-07-20T13:13:54;4.55;;;1.60;;
73814;SDS011;62145;55.648;37.602;2023-07-20T13:16:20;4.90;;;1.30;;
73814;SDS011;62145;55.648;37.602;2023-07-20T13:18:46;5.30;;;1.60;;
73814;SDS011;62145;55.648;37.602;2023-07-20T13:21:12;5.20;;;1.70;;
73814;SDS011;62145;55.648;37.602;2023-07-20T13:23:38;5.50;;;1.50;;
73814;SDS011;62145;55.648;37.602;2023-07-20T13:26:04;4.63;;;1.60;;
73814;SDS011;62145;55.648;37.602;2023-07-20T13:28:30;5.90;;;1.70;;
73814;SDS011;62145;55.648;37.602;2023-07-20T13:30:56;5.47;;;2.00;;
73814;SDS011;62145;55.648;37.602;2023-07-20T13:33:22;5.57;;;1.60;;
73814;SDS011;62145;55.648;37.602;2023-07-20T13:35:47;7.50;;;1.80;;
73814;SDS011;62145;55.648;37.602;2023-07-20T13:38:13;4.20;;;1.70;;
73814;SDS011;62145;55.648;37.602;2023-07-20T13:40:39;8.55;;;1.58;;
73814;SDS011;62145;55.648;37.602;2023-07-20T13:43:05;6.30;;;1.60;;
73814;SDS011;62145;55.648;37.602;2023-07-20T13:45:31;5.40;;;1.50;;
73814;SDS011;62145;55.648;37.602;2023-07-20T13:47:56;4.68;;;1.60;;
73814;SDS011;62145;55.648;37.602;2023-07-20T13:50:22;5.87;;;1.60;;
73814;SDS011;62145;55.648;37.602;2023-07-20T13:52:48;6.05;;;1.70;;
73814;SDS011;62145;55.648;37.602;2023-07-20T13:55:14;6.17;;;1.67;;
73814;SDS011;62145;55.648;37.602;2023-07-20T13:57:40;4.97;;;1.73;;
73814;SDS011;62145;55.648;37.602;2023-07-20T14:00:06;6.53;;;1.70;;
73814;SDS011;62145;55.648;37.602;2023-07-20T14:02:40;4.03;;;1.37;;
73814;SDS011;62145;55.648;37.602;2023-07-20T14:05:06;4.07;;;1.30;;
73814;SDS011;62145;55.648;37.602;2023-07-20T14:07:32;5.85;;;1.40;;
73814;SDS011;62145;55.648;37.602;2023-07-20T14:09:57;5.40;;;1.43;;
73814;SDS011;62145;55.648;37.602;2023-07-20T14:12:24;4.87;;;1.40;;
73814;SDS011;62145;55.648;37.602;2023-07-20T14:14:50;6.63;;;1.52;;
73814;SDS011;62145;55.648;37.602;2023-07-20T14:17:16;5.00;;;1.60;;
73814;SDS011;62145;55.648;37.602;2023-07-20T14:19:41;4.45;;;1.67;;
73814;SDS011;62145;55.648;37.602;2023-07-20T14:22:07;5.32;;;1.55;;
73814;SDS011;62145;55.648;37.602;2023-07-20T14:24:33;4.13;;;1.40;;
73814;SDS011;62145;55.648;37.602;2023-07-20T14:27:01;4.03;;;1.50;;
73814;SDS011;62145;55.648;37.602;2023-07-20T14:29:27;5.88;;;1.60;;
73814;SDS011;62145;55.648;37.602;2023-07-20T14:31:57;3.97;;;1.45;;
73814;SDS011;62145;55.648;37.602;2023-07-20T14:34:25;4.60;;;1.77;;
73814;SDS011;62145;55.648;37.602;2023-07-20T14:36:51;4.40;;;1.60;;
73814;SDS011;62145;55.648;37.602;2023-07-20T14:39:17;5.95;;;1.67;;
73814;SDS011;62145;55.648;37.602;2023-07-20T14:41:43;5.63;;;1.65;;
73814;SDS011;62145;55.648;37.602;2023-07-20T14:44:09;4.23;;;1.60;;
73814;SDS011;62145;55.648;37.602;2023-07-20T14:46:36;5.72;;;1.70;;
73814;SDS011;62145;55.648;37.602;2023-07-20T14:49:01;5.68;;;1.58;;
73814;SDS011;62145;55.648;37.602;2023-07-20T14:51:28;5.90;;;1.50;;
73814;SDS011;62145;55.648;37.602;2023-07-20T14:53:58;5.38;;;1.60;;
73814;SDS011;62145;55.648;37.602;2023-07-20T14:56:26;4.83;;;1.77;;
73814;SDS011;62145;55.648;37.602;2023-07-20T14:58:52;4.50;;;1.50;;